createdAt,value
2022-12-25T00:01:24.964Z,13.63
2022-12-25T00:03:52.840Z,14.10
2022-12-25T00:06:20.269Z,14.20
2022-12-25T00:08:47.714Z,15.03
2022-12-25T00:11:18.274Z,13.30
2022-12-25T00:13:45.802Z,14.47
2022-12-25T00:16:20.493Z,16.43
2022-12-25T00:18:48.210Z,14.23
2022-12-25T00:21:15.644Z,14.50
2022-12-25T00:23:43.213Z,14.73
2022-12-25T00:26:16.227Z,13.90
2022-12-25T00:28:43.496Z,13.60
2022-12-25T00:31:14.505Z,13.80
2022-12-25T00:33:44.468Z,11.63
2022-12-25T00:36:13.588Z,15.10
2022-12-25T00:38:41.382Z,12.93
2022-12-25T00:41:18.338Z,13.43
2022-12-25T00:43:45.289Z,12.10
2022-12-25T00:46:13.566Z,13.40
2022-12-25T00:48:45.152Z,14.17
2022-12-25T00:51:12.199Z,13.50
2022-12-25T00:53:39.101Z,13.97
2022-12-25T00:56:07.527Z,13.60
2022-12-25T00:58:35.313Z,13.00
2022-12-25T01:01:03.186Z,13.80
2022-12-25T01:03:30.549Z,13.33
2022-12-25T01:06:05.684Z,13.23
2022-12-25T01:08:38.659Z,13.60
2022-12-25T01:11:09.265Z,13.70
2022-12-25T01:13:37.451Z,13.90
2022-12-25T01:16:09.944Z,12.30
2022-12-25T01:18:38.091Z,11.63
2022-12-25T01:21:10.509Z,11.73
2022-12-25T01:23:37.947Z,11.83
2022-12-25T01:26:10.601Z,12.07
2022-12-25T01:28:38.583Z,10.87
2022-12-25T01:31:14.409Z,10.50
2022-12-25T01:33:43.177Z,12.10
2022-12-25T01:36:16.049Z,10.03
2022-12-25T01:38:43.839Z,11.07
2022-12-25T01:41:12.523Z,10.00
2022-12-25T01:44:27.597Z,11.87
2022-12-25T01:46:54.613Z,11.30
2022-12-25T01:49:25.207Z,11.50
2022-12-25T01:52:11.943Z,12.93
2022-12-25T01:54:49.563Z,12.87
2022-12-25T01:57:27.646Z,10.73
2022-12-25T01:59:57.795Z,11.90
2022-12-25T02:02:25.294Z,11.87
2022-12-25T02:05:09.306Z,11.10
2022-12-25T02:07:41.170Z,10.70
2022-12-25T02:10:10.858Z,9.77
2022-12-25T02:12:38.340Z,11.33
2022-12-25T02:15:21.533Z,10.23
2022-12-25T02:18:14.042Z,11.30
2022-12-25T02:20:43.823Z,11.50
2022-12-25T02:23:49.928Z,10.87
2022-12-25T02:26:40.970Z,10.37
2022-12-25T02:29:35.881Z,11.83
2022-12-25T02:32:19.462Z,11.00
2022-12-25T02:35:15.947Z,10.80
2022-12-25T02:37:49.324Z,11.47
2022-12-25T02:40:27.805Z,11.50
2022-12-25T02:43:21.058Z,9.47
2022-12-25T02:46:28.680Z,10.73
2022-12-25T02:49:22.909Z,10.00
2022-12-25T02:52:16.143Z,10.10
2022-12-25T02:55:07.288Z,10.40
2022-12-25T02:58:07.612Z,9.60
2022-12-25T03:00:59.054Z,9.43
2022-12-25T03:03:51.439Z,10.43
2022-12-25T03:06:38.759Z,10.10
2022-12-25T03:09:30.171Z,10.43
2022-12-25T03:12:08.506Z,11.10
2022-12-25T03:14:55.805Z,10.00
2022-12-25T03:17:22.846Z,10.13
2022-12-25T03:20:08.582Z,10.40
2022-12-25T03:22:55.280Z,11.97
2022-12-25T03:25:40.734Z,9.23
2022-12-25T03:28:07.783Z,10.37
2022-12-25T03:31:23.153Z,10.57
2022-12-25T03:34:15.837Z,10.83
2022-12-25T03:37:24.876Z,9.23
2022-12-25T03:40:55.866Z,10.10
2022-12-25T03:44:19.818Z,9.27
2022-12-25T03:47:15.508Z,9.60
2022-12-25T03:50:10.206Z,10.67
2022-12-25T03:52:57.975Z,10.30
2022-12-25T03:55:45.106Z,9.40
2022-12-25T03:58:43.586Z,9.60
2022-12-25T04:01:29.571Z,9.93
2022-12-25T04:04:15.997Z,10.60
2022-12-25T04:07:02.068Z,9.90
2022-12-25T04:09:47.685Z,9.73
2022-12-25T04:12:33.403Z,10.90
2022-12-25T04:15:19.036Z,8.77
2022-12-25T04:18:04.667Z,9.97
2022-12-25T04:20:50.642Z,12.10
2022-12-25T04:23:36.443Z,9.97
2022-12-25T04:26:21.892Z,8.63
2022-12-25T04:29:07.568Z,11.40
2022-12-25T04:31:54.554Z,9.40
2022-12-25T04:34:40.098Z,9.00
2022-12-25T04:37:07.084Z,10.27
2022-12-25T04:39:33.949Z,8.80
2022-12-25T04:42:01.092Z,9.17
2022-12-25T04:44:28.121Z,9.47
2022-12-25T04:46:55.156Z,9.30
2022-12-25T04:49:22.062Z,9.27
2022-12-25T04:51:49.009Z,8.60
2022-12-25T04:54:16.137Z,8.50
2022-12-25T04:56:45.731Z,9.70
2022-12-25T04:59:13.467Z,8.23
2022-12-25T05:01:40.650Z,8.43
2022-12-25T05:04:08.059Z,8.67
2022-12-25T05:06:35.015Z,8.37
2022-12-25T05:09:02.323Z,8.10
2022-12-25T05:11:29.207Z,8.20
2022-12-25T05:13:58.007Z,9.73
2022-12-25T05:16:26.403Z,7.50
2022-12-25T05:18:53.405Z,8.23
2022-12-25T05:21:20.639Z,7.80
2022-12-25T05:23:51.630Z,7.80
2022-12-25T05:26:24.604Z,7.67
2022-12-25T05:28:51.979Z,7.17
2022-12-25T05:31:20.225Z,6.80
2022-12-25T05:33:51.688Z,9.13
2022-12-25T05:36:18.828Z,7.00
2022-12-25T05:38:45.688Z,7.20
2022-12-25T05:41:12.891Z,7.90
2022-12-25T05:43:39.997Z,6.63
2022-12-25T05:46:09.909Z,8.60
2022-12-25T05:48:38.111Z,7.00
2022-12-25T05:51:08.183Z,6.77
2022-12-25T05:53:35.716Z,7.47
2022-12-25T05:56:06.148Z,6.47
2022-12-25T05:58:34.974Z,6.90
2022-12-25T06:01:02.370Z,7.53
2022-12-25T06:03:29.680Z,7.03
2022-12-25T06:05:56.779Z,6.53
2022-12-25T06:08:23.702Z,8.07
2022-12-25T06:10:50.620Z,7.30
2022-12-25T06:13:17.520Z,7.23
2022-12-25T06:15:44.375Z,7.73
2022-12-25T06:18:11.322Z,6.53
2022-12-25T06:20:41.219Z,8.60
2022-12-25T06:23:08.192Z,7.40
2022-12-25T06:25:38.002Z,7.20
2022-12-25T06:28:05.097Z,6.33
2022-12-25T06:30:32.669Z,7.67
2022-12-25T06:33:00.333Z,6.63
2022-12-25T06:35:27.211Z,6.57
2022-12-25T06:37:54.215Z,6.73
2022-12-25T06:40:21.610Z,6.50
2022-12-25T06:42:48.540Z,7.73
2022-12-25T06:45:15.412Z,6.97
2022-12-25T06:47:42.516Z,6.93
2022-12-25T06:50:09.530Z,6.97
2022-12-25T06:52:36.464Z,7.23
2022-12-25T06:55:03.367Z,6.40
2022-12-25T06:57:30.700Z,6.83
2022-12-25T06:59:57.564Z,8.10
2022-12-25T07:02:25.302Z,7.63
2022-12-25T07:04:53.429Z,7.13
2022-12-25T07:07:21.467Z,8.70
2022-12-25T07:09:48.348Z,8.60
2022-12-25T07:12:19.672Z,7.97
2022-12-25T07:14:50.307Z,7.27
2022-12-25T07:17:17.661Z,7.40
2022-12-25T07:19:46.125Z,6.80
2022-12-25T07:22:14.243Z,7.67
2022-12-25T07:24:41.348Z,6.10
2022-12-25T07:27:08.493Z,7.50
2022-12-25T07:29:35.565Z,8.50
2022-12-25T07:32:02.546Z,6.43
2022-12-25T07:34:29.769Z,7.43
2022-12-25T07:36:56.654Z,7.30
2022-12-25T07:39:23.997Z,6.60
2022-12-25T07:41:51.718Z,9.87
2022-12-25T07:44:18.775Z,7.60
2022-12-25T07:46:45.835Z,11.97
2022-12-25T07:49:13.161Z,8.60
2022-12-25T07:51:40.233Z,11.03
2022-12-25T07:54:07.350Z,16.67
2022-12-25T07:56:34.339Z,13.50
2022-12-25T07:59:01.497Z,7.60
2022-12-25T08:01:29.727Z,6.77
2022-12-25T08:04:00.058Z,8.20
2022-12-25T08:06:32.661Z,6.10
2022-12-25T08:09:10.131Z,6.53
2022-12-25T08:11:38.226Z,7.70
2022-12-25T08:14:09.255Z,6.30
2022-12-25T08:16:40.132Z,7.13
2022-12-25T08:19:11.476Z,6.20
2022-12-25T08:21:38.979Z,7.10
2022-12-25T08:24:06.299Z,9.00
2022-12-25T08:26:33.181Z,10.70
2022-12-25T08:29:00.133Z,9.97
2022-12-25T08:31:31.412Z,8.30
2022-12-25T08:34:03.365Z,7.17
2022-12-25T08:36:31.069Z,7.20
2022-12-25T08:39:02.488Z,6.30
2022-12-25T08:41:30.691Z,7.30
2022-12-25T08:43:57.950Z,8.03
2022-12-25T08:46:25.404Z,6.63
2022-12-25T08:48:52.390Z,6.37
2022-12-25T08:51:22.608Z,7.00
2022-12-25T08:53:51.870Z,5.83
2022-12-25T08:56:20.028Z,6.60
2022-12-25T08:58:47.186Z,6.10
2022-12-25T09:01:14.556Z,5.97
2022-12-25T09:03:42.973Z,6.03
2022-12-25T09:06:15.985Z,6.27
2022-12-25T09:08:49.248Z,5.83
2022-12-25T09:11:19.270Z,5.30
2022-12-25T09:13:46.877Z,5.80
2022-12-25T09:16:21.465Z,5.97
2022-12-25T09:18:49.335Z,7.00
2022-12-25T09:21:18.721Z,6.83
2022-12-25T09:23:45.741Z,5.50
2022-12-25T09:26:15.502Z,7.60
2022-12-25T09:28:50.165Z,10.87
2022-12-25T09:31:20.237Z,10.20
2022-12-25T09:33:47.486Z,9.73
2022-12-25T09:36:14.471Z,7.20
2022-12-25T09:38:41.340Z,6.90
2022-12-25T09:41:28.186Z,6.63
2022-12-25T09:44:21.627Z,6.00
2022-12-25T09:46:56.328Z,6.90
2022-12-25T09:49:52.071Z,8.47
2022-12-25T09:52:42.996Z,6.17
2022-12-25T09:55:20.846Z,7.87
2022-12-25T09:57:56.037Z,6.73
2022-12-25T10:00:26.481Z,7.00
2022-12-25T10:03:37.582Z,6.23
2022-12-25T10:06:18.663Z,6.60
2022-12-25T10:08:57.396Z,6.43
2022-12-25T10:12:06.333Z,6.30
2022-12-25T10:15:32.028Z,6.57
2022-12-25T10:18:38.889Z,6.60
2022-12-25T10:21:13.273Z,5.40
2022-12-25T10:23:58.401Z,6.43
2022-12-25T10:26:26.412Z,12.80
2022-12-25T10:29:04.276Z,20.60
2022-12-25T10:31:36.110Z,15.20
2022-12-25T10:34:04.252Z,13.33
2022-12-25T10:36:35.525Z,6.77
2022-12-25T10:39:02.670Z,7.73
2022-12-25T10:42:34.248Z,6.50
2022-12-25T10:45:05.290Z,6.43
2022-12-25T10:47:42.065Z,12.57
2022-12-25T10:50:12.460Z,7.33
2022-12-25T10:53:00.841Z,8.17
2022-12-25T10:55:29.379Z,8.17
2022-12-25T10:57:57.915Z,8.03
2022-12-25T11:00:31.742Z,7.40
2022-12-25T11:02:59.606Z,8.60
2022-12-25T11:05:31.635Z,6.67
2022-12-25T11:08:01.359Z,8.10
2022-12-25T11:10:32.798Z,7.50
2022-12-25T11:13:01.632Z,6.97
2022-12-25T11:15:44.523Z,7.07
2022-12-25T11:18:26.561Z,7.73
2022-12-25T11:21:00.207Z,7.50
2022-12-25T11:23:30.699Z,8.73
2022-12-25T11:26:06.599Z,7.83
2022-12-25T11:28:36.651Z,7.90
2022-12-25T11:31:31.385Z,8.80
2022-12-25T11:34:14.849Z,8.20
2022-12-25T11:36:50.445Z,8.97
2022-12-25T11:39:36.607Z,7.50
2022-12-25T11:42:37.332Z,8.30
2022-12-25T11:45:13.656Z,8.20
2022-12-25T11:47:58.958Z,8.40
2022-12-25T11:50:50.108Z,7.70
2022-12-25T11:53:18.844Z,8.90
2022-12-25T11:55:54.831Z,8.20
2022-12-25T11:58:36.367Z,8.40
2022-12-25T12:01:16.542Z,8.63
2022-12-25T12:03:45.431Z,8.23
2022-12-25T12:06:30.345Z,8.57
2022-12-25T12:09:26.915Z,10.17
2022-12-25T12:12:31.306Z,8.40
2022-12-25T12:15:16.082Z,8.80
2022-12-25T12:17:42.993Z,8.47
2022-12-25T12:20:12.964Z,8.10
2022-12-25T12:22:48.956Z,9.17
2022-12-25T12:25:17.423Z,14.20
2022-12-25T12:27:44.940Z,13.20
2022-12-25T12:30:38.613Z,14.53
2022-12-25T12:33:08.114Z,12.43
2022-12-25T12:35:38.681Z,14.13
2022-12-25T12:38:18.794Z,13.00
2022-12-25T12:40:54.915Z,13.30
2022-12-25T12:43:59.579Z,10.70
2022-12-25T12:46:32.003Z,10.37
2022-12-25T12:49:34.902Z,10.70
2022-12-25T12:52:26.327Z,9.43
2022-12-25T12:55:01.681Z,9.70
2022-12-25T12:57:39.630Z,11.30
2022-12-25T13:00:18.554Z,8.70
2022-12-25T13:03:15.706Z,10.23
2022-12-25T13:05:50.663Z,11.77
2022-12-25T13:08:47.637Z,10.93
2022-12-25T13:11:25.135Z,13.03
2022-12-25T13:13:55.721Z,9.60
2022-12-25T13:16:32.089Z,11.40
2022-12-25T13:19:05.258Z,10.17
2022-12-25T13:21:34.035Z,10.63
2022-12-25T13:24:07.643Z,10.00
2022-12-25T13:26:36.422Z,10.30
2022-12-25T13:29:11.010Z,11.63
2022-12-25T13:31:41.373Z,10.20
2022-12-25T13:34:37.604Z,10.20
2022-12-25T13:37:13.913Z,10.27
2022-12-25T13:40:05.256Z,11.83
2022-12-25T13:42:39.888Z,11.67
2022-12-25T13:45:29.536Z,11.17
2022-12-25T13:47:56.965Z,11.73
2022-12-25T13:50:33.092Z,12.60
2022-12-25T13:53:16.781Z,11.57
2022-12-25T13:55:52.465Z,12.50
2022-12-25T13:58:29.287Z,13.17
2022-12-25T14:00:59.042Z,14.37
2022-12-25T14:03:47.759Z,13.00
2022-12-25T14:06:28.457Z,13.63
2022-12-25T14:08:57.730Z,17.07
2022-12-25T14:11:28.639Z,15.40
2022-12-25T14:14:05.848Z,14.83
2022-12-25T14:16:33.762Z,14.13
2022-12-25T14:19:03.561Z,12.97
2022-12-25T14:21:35.178Z,16.73
2022-12-25T14:24:02.203Z,16.63
2022-12-25T14:26:32.919Z,19.30
2022-12-25T14:29:05.917Z,17.17
2022-12-25T14:31:33.758Z,14.30
2022-12-25T14:34:02.746Z,17.43
2022-12-25T14:36:31.281Z,15.70
2022-12-25T14:39:04.343Z,18.37
2022-12-25T14:41:41.755Z,14.87
2022-12-25T14:44:44.399Z,13.93
2022-12-25T14:47:11.290Z,14.70
2022-12-25T14:49:39.134Z,13.37
2022-12-25T14:52:20.507Z,14.90
2022-12-25T14:54:56.859Z,16.27
2022-12-25T14:57:53.025Z,15.47
2022-12-25T15:00:25.025Z,13.90
2022-12-25T15:02:55.007Z,17.90
2022-12-25T15:05:36.835Z,13.00
2022-12-25T15:08:08.911Z,13.10
2022-12-25T15:13:24.957Z,13.83
2022-12-25T15:16:16.962Z,10.37
2022-12-25T15:18:45.902Z,9.70
2022-12-25T15:21:26.263Z,11.47
2022-12-25T15:23:58.323Z,11.67
2022-12-25T15:26:26.775Z,10.63
2022-12-25T15:28:53.974Z,10.63
2022-12-25T15:31:27.877Z,11.10
2022-12-25T15:33:57.788Z,11.23
2022-12-25T15:36:25.712Z,10.80
2022-12-25T15:38:53.775Z,11.83
2022-12-25T15:41:46.391Z,12.37
2022-12-25T15:44:15.367Z,11.50
2022-12-25T15:46:42.638Z,12.27
2022-12-25T15:49:11.453Z,13.27
2022-12-25T15:51:39.261Z,11.63
2022-12-25T15:54:06.286Z,11.70
2022-12-25T15:56:46.206Z,11.30
2022-12-25T15:59:15.256Z,10.43
2022-12-25T16:01:47.850Z,11.20
2022-12-25T16:04:15.456Z,15.27
2022-12-25T16:06:42.356Z,17.47
2022-12-25T16:09:12.896Z,13.47
2022-12-25T16:11:39.930Z,14.63
2022-12-25T16:14:07.159Z,14.80
2022-12-25T16:16:36.529Z,14.67
2022-12-25T16:19:03.880Z,16.30
2022-12-25T16:21:46.701Z,16.07
2022-12-25T16:24:14.327Z,14.00
2022-12-25T16:26:41.672Z,14.07
2022-12-25T16:29:08.988Z,13.37
2022-12-25T16:31:37.260Z,18.07
2022-12-25T16:34:06.437Z,33.10
2022-12-25T16:36:33.924Z,15.00
2022-12-25T16:39:00.891Z,12.00
2022-12-25T16:41:27.904Z,12.77
2022-12-25T16:43:55.164Z,15.17
2022-12-25T16:46:22.821Z,13.67
2022-12-25T16:48:51.255Z,13.97
2022-12-25T16:51:20.912Z,13.13
2022-12-25T16:53:48.377Z,19.27
2022-12-25T16:56:20.570Z,14.90
2022-12-25T16:58:48.052Z,18.77
2022-12-25T17:01:18.468Z,20.63
2022-12-25T17:03:46.762Z,15.07
2022-12-25T17:06:21.081Z,15.07
2022-12-25T17:08:48.133Z,15.07
2022-12-25T17:11:19.066Z,15.10
2022-12-25T17:13:47.562Z,15.83
2022-12-25T17:16:29.670Z,15.57
2022-12-25T17:19:01.284Z,16.90
2022-12-25T17:21:30.071Z,14.90
2022-12-25T17:24:02.354Z,14.70
2022-12-25T17:26:32.214Z,15.27
2022-12-25T17:28:59.060Z,13.90
2022-12-25T17:31:26.145Z,12.73
2022-12-25T17:33:53.140Z,14.10
2022-12-25T17:36:22.073Z,13.27
2022-12-25T17:38:49.195Z,13.20
2022-12-25T17:41:18.051Z,13.50
2022-12-25T17:43:45.763Z,16.53
2022-12-25T17:46:24.225Z,14.00
2022-12-25T17:48:53.743Z,13.73
2022-12-25T17:51:24.035Z,14.07
2022-12-25T17:53:55.406Z,13.93
2022-12-25T17:56:24.055Z,14.37
2022-12-25T17:58:53.604Z,12.60
2022-12-25T18:01:22.296Z,13.70
2022-12-25T18:03:50.104Z,12.93
2022-12-25T18:06:21.386Z,13.30
2022-12-25T18:08:49.266Z,12.60
2022-12-25T18:11:29.105Z,13.90
2022-12-25T18:13:58.228Z,11.43
2022-12-25T18:16:27.716Z,15.77
2022-12-25T18:18:56.381Z,30.80
2022-12-25T18:21:23.631Z,42.57
2022-12-25T18:23:51.023Z,38.30
2022-12-25T18:26:19.364Z,27.40
2022-12-25T18:28:47.526Z,26.07
2022-12-25T18:31:18.938Z,21.57
2022-12-25T18:33:46.247Z,29.90
2022-12-25T18:36:15.811Z,16.90
2022-12-25T18:38:42.861Z,20.67
2022-12-25T18:41:10.966Z,19.80
2022-12-25T18:43:53.880Z,25.83
2022-12-25T18:46:27.754Z,23.70
2022-12-25T18:48:56.049Z,29.60
2022-12-25T18:51:23.635Z,17.53
2022-12-25T18:53:51.128Z,20.47
2022-12-25T18:56:19.910Z,22.50
2022-12-25T18:58:47.423Z,19.70
2022-12-25T19:01:22.714Z,19.93
2022-12-25T19:03:53.859Z,25.97
2022-12-25T19:06:28.150Z,27.53
2022-12-25T19:08:56.256Z,23.20
2022-12-25T19:11:23.488Z,20.87
2022-12-25T19:13:50.468Z,19.60
2022-12-25T19:16:17.657Z,16.70
2022-12-25T19:18:46.175Z,17.97
2022-12-25T19:21:13.144Z,15.00
2022-12-25T19:23:40.155Z,16.83
2022-12-25T19:26:09.155Z,22.40
2022-12-25T19:28:37.995Z,18.43
2022-12-25T19:31:07.802Z,17.90
2022-12-25T19:33:37.523Z,16.00
2022-12-25T19:36:11.978Z,15.60
2022-12-25T19:38:38.959Z,16.70
2022-12-25T19:41:12.284Z,21.40
2022-12-25T19:43:41.350Z,16.67
2022-12-25T19:46:18.074Z,18.03
2022-12-25T19:48:45.647Z,19.53
2022-12-25T19:51:26.333Z,18.60
2022-12-25T19:53:57.948Z,17.57
2022-12-25T19:56:26.692Z,17.80
2022-12-25T19:58:53.977Z,18.43
2022-12-25T20:01:23.998Z,16.00
2022-12-25T20:03:51.603Z,16.40
2022-12-25T20:06:32.800Z,16.53
2022-12-25T20:09:13.952Z,16.23
2022-12-25T20:11:41.905Z,15.67
2022-12-25T20:14:16.027Z,16.77
2022-12-25T20:16:44.027Z,19.23
2022-12-25T20:19:13.037Z,23.87
2022-12-25T20:21:40.655Z,24.23
2022-12-25T20:24:10.145Z,25.17
2022-12-25T20:26:39.166Z,23.53
2022-12-25T20:29:06.713Z,22.10
2022-12-25T20:31:35.544Z,22.10
2022-12-25T20:34:10.128Z,20.93
2022-12-25T20:36:38.271Z,21.37
2022-12-25T20:39:09.240Z,20.83
2022-12-25T20:41:37.433Z,19.80
2022-12-25T20:44:06.524Z,21.80
2022-12-25T20:46:34.061Z,19.93
2022-12-25T20:49:02.387Z,19.07
2022-12-25T20:51:29.334Z,18.13
2022-12-25T20:53:56.768Z,17.63
2022-12-25T20:56:26.323Z,18.90
2022-12-25T20:58:58.812Z,17.63
2022-12-25T21:01:28.638Z,18.93
2022-12-25T21:03:58.299Z,17.03
2022-12-25T21:06:25.685Z,18.53
2022-12-25T21:08:52.892Z,17.87
2022-12-25T21:11:21.230Z,18.73
2022-12-25T21:13:49.694Z,17.37
2022-12-25T21:16:21.460Z,18.90
2022-12-25T21:18:53.143Z,17.00
2022-12-25T21:21:21.635Z,18.90
2022-12-25T21:23:49.158Z,19.90
2022-12-25T21:26:24.167Z,20.70
2022-12-25T21:28:55.000Z,20.43
2022-12-25T21:31:22.999Z,20.27
2022-12-25T21:33:53.790Z,19.77
2022-12-25T21:36:34.679Z,18.67
2022-12-25T21:39:08.188Z,18.17
2022-12-25T21:41:38.020Z,21.40
2022-12-25T21:44:06.120Z,19.27
2022-12-25T21:46:33.160Z,20.70
2022-12-25T21:49:00.949Z,21.10
2022-12-25T21:51:49.895Z,21.53
2022-12-25T21:54:18.884Z,19.47
2022-12-25T21:56:47.394Z,19.60
2022-12-25T21:59:17.985Z,20.97
2022-12-25T22:01:45.996Z,20.53
2022-12-25T22:04:15.578Z,20.23
2022-12-25T22:07:02.107Z,22.20
2022-12-25T22:09:29.115Z,20.23
2022-12-25T22:12:16.462Z,17.43
2022-12-25T22:14:56.219Z,19.83
2022-12-25T22:17:46.224Z,18.00
2022-12-25T22:20:34.436Z,19.13
2022-12-25T22:23:01.461Z,17.17
2022-12-25T22:25:29.199Z,17.70
2022-12-25T22:27:57.703Z,19.20
2022-12-25T22:30:28.403Z,17.63
2022-12-25T22:32:56.186Z,19.33
2022-12-25T22:35:23.252Z,18.70
2022-12-25T22:37:50.619Z,16.80
2022-12-25T22:40:20.313Z,17.13
2022-12-25T22:42:47.852Z,17.30
2022-12-25T22:45:15.212Z,19.90
2022-12-25T22:47:42.695Z,17.10
2022-12-25T22:50:11.568Z,16.67
2022-12-25T22:52:41.101Z,17.73
2022-12-25T22:55:09.644Z,16.80
2022-12-25T22:57:36.865Z,17.43
2022-12-25T23:00:06.260Z,17.50
2022-12-25T23:02:35.212Z,17.20
2022-12-25T23:05:03.271Z,17.97
2022-12-25T23:07:30.787Z,16.97
2022-12-25T23:09:57.664Z,21.77
2022-12-25T23:12:43.199Z,16.53
2022-12-25T23:15:10.346Z,19.57
2022-12-25T23:17:56.000Z,19.10
2022-12-25T23:20:41.560Z,18.60
2022-12-25T23:23:34.389Z,18.50
2022-12-25T23:26:07.924Z,16.73
2022-12-25T23:28:59.556Z,18.47
2022-12-25T23:31:32.089Z,17.70
2022-12-25T23:34:01.444Z,18.03
2022-12-25T23:36:28.520Z,20.43
2022-12-25T23:38:55.877Z,19.43
2022-12-25T23:41:23.303Z,17.77
2022-12-25T23:43:50.540Z,19.17
2022-12-25T23:46:17.849Z,19.40
2022-12-25T23:48:44.999Z,19.57
2022-12-25T23:51:11.987Z,19.20
2022-12-25T23:53:38.992Z,21.30
2022-12-25T23:56:06.751Z,20.40
2022-12-25T23:58:33.810Z,21.37
